createdAt,value
2022-10-16T00:01:14.229Z,16.52
2022-10-16T00:03:41.844Z,18.83
2022-10-16T00:06:09.344Z,20.73
2022-10-16T00:08:36.521Z,20.80
2022-10-16T00:11:23.123Z,24.48
2022-10-16T00:13:51.009Z,23.75
2022-10-16T00:16:18.351Z,28.13
2022-10-16T00:18:45.238Z,25.40
2022-10-16T00:21:15.336Z,26.63
2022-10-16T00:23:42.255Z,28.15
2022-10-16T00:26:11.747Z,27.75
2022-10-16T00:28:38.651Z,24.35
2022-10-16T00:31:12.202Z,23.83
2022-10-16T00:33:39.528Z,27.30
2022-10-16T00:36:07.123Z,23.35
2022-10-16T00:38:33.991Z,22.30
2022-10-16T00:41:01.110Z,21.05
2022-10-16T00:43:47.773Z,23.00
2022-10-16T00:46:23.123Z,20.60
2022-10-16T00:49:11.896Z,21.67
2022-10-16T00:51:41.275Z,21.38
2022-10-16T00:54:14.473Z,18.77
2022-10-16T00:56:41.832Z,18.77
2022-10-16T00:59:16.313Z,19.80
2022-10-16T01:01:43.294Z,18.30
2022-10-16T01:04:10.058Z,17.38
2022-10-16T01:06:55.850Z,16.08
2022-10-16T01:09:45.345Z,16.45
2022-10-16T01:12:21.614Z,15.90
2022-10-16T01:14:56.538Z,17.70
2022-10-16T01:17:25.529Z,16.05
2022-10-16T01:20:07.668Z,15.60
2022-10-16T01:22:40.014Z,14.93
2022-10-16T01:25:09.174Z,13.50
2022-10-16T01:27:36.177Z,15.40
2022-10-16T01:30:10.981Z,15.75
2022-10-16T01:32:58.361Z,16.58
2022-10-16T01:35:33.551Z,16.80
2022-10-16T01:38:12.708Z,17.38
2022-10-16T01:40:43.557Z,15.93
2022-10-16T01:43:13.601Z,19.38
2022-10-16T01:45:40.372Z,16.15
2022-10-16T01:48:08.896Z,17.17
2022-10-16T01:50:38.316Z,16.90
2022-10-16T01:53:05.221Z,17.55
2022-10-16T01:55:34.773Z,14.48
2022-10-16T01:58:01.692Z,17.05
2022-10-16T02:00:28.764Z,18.02
2022-10-16T02:02:56.276Z,14.15
2022-10-16T02:05:27.508Z,13.85
2022-10-16T02:07:54.312Z,14.73
2022-10-16T02:10:21.833Z,16.15
2022-10-16T02:13:10.591Z,14.38
2022-10-16T02:15:37.619Z,15.65
2022-10-16T02:18:08.008Z,16.27
2022-10-16T02:20:45.407Z,15.25
2022-10-16T02:23:13.380Z,14.57
2022-10-16T02:25:41.408Z,15.70
2022-10-16T02:28:10.481Z,13.48
2022-10-16T02:31:01.831Z,13.63
2022-10-16T02:33:28.627Z,17.10
2022-10-16T02:35:55.691Z,14.25
2022-10-16T02:38:22.641Z,15.85
2022-10-16T02:40:49.642Z,14.60
2022-10-16T02:43:16.399Z,13.82
2022-10-16T02:45:43.403Z,14.65
2022-10-16T02:48:10.218Z,18.25
2022-10-16T02:50:37.250Z,18.08
2022-10-16T02:53:03.991Z,16.92
2022-10-16T02:55:31.448Z,17.35
2022-10-16T02:57:58.241Z,15.48
2022-10-16T03:00:25.256Z,17.02
2022-10-16T03:02:51.989Z,19.73
2022-10-16T03:05:19.141Z,16.27
2022-10-16T03:07:45.985Z,16.45
2022-10-16T03:10:13.141Z,18.67
2022-10-16T03:12:39.889Z,18.13
2022-10-16T03:15:08.045Z,15.43
2022-10-16T03:17:34.888Z,15.85
2022-10-16T03:20:01.885Z,15.43
2022-10-16T03:22:28.682Z,16.95
2022-10-16T03:24:55.724Z,16.73
2022-10-16T03:27:22.460Z,15.30
2022-10-16T03:29:49.496Z,15.32
2022-10-16T03:32:16.317Z,12.55
2022-10-16T03:34:43.344Z,13.15
2022-10-16T03:37:10.146Z,13.77
2022-10-16T03:39:37.104Z,12.93
2022-10-16T03:42:03.869Z,14.32
2022-10-16T03:44:31.007Z,12.52
2022-10-16T03:46:57.768Z,12.35
2022-10-16T03:49:24.781Z,13.43
2022-10-16T03:51:51.556Z,13.00
2022-10-16T03:54:18.588Z,12.88
2022-10-16T03:56:45.335Z,13.13
2022-10-16T03:59:12.347Z,12.32
2022-10-16T04:01:39.110Z,10.85
2022-10-16T04:04:06.152Z,14.02
2022-10-16T04:06:32.916Z,13.93
2022-10-16T04:08:59.980Z,16.23
2022-10-16T04:11:26.735Z,13.57
2022-10-16T04:13:53.739Z,12.55
2022-10-16T04:16:20.615Z,12.93
2022-10-16T04:18:47.592Z,11.05
2022-10-16T04:21:14.357Z,13.23
2022-10-16T04:23:41.323Z,13.50
2022-10-16T04:26:08.071Z,12.68
2022-10-16T04:28:35.190Z,15.80
2022-10-16T04:31:05.088Z,12.25
2022-10-16T04:33:32.167Z,10.65
2022-10-16T04:35:59.736Z,11.75
2022-10-16T04:38:26.859Z,13.10
2022-10-16T04:40:53.837Z,12.10
2022-10-16T04:43:21.000Z,11.18
2022-10-16T04:45:48.039Z,11.30
2022-10-16T04:48:15.034Z,11.27
2022-10-16T04:50:42.214Z,11.73
2022-10-16T04:53:09.471Z,13.23
2022-10-16T04:55:36.253Z,13.07
2022-10-16T04:58:03.266Z,12.32
2022-10-16T05:00:30.056Z,12.13
2022-10-16T05:02:57.284Z,12.18
2022-10-16T05:05:24.154Z,11.82
2022-10-16T05:07:51.206Z,10.75
2022-10-16T05:10:18.063Z,10.57
2022-10-16T05:12:45.124Z,13.43
2022-10-16T05:15:11.963Z,12.25
2022-10-16T05:17:42.507Z,11.60
2022-10-16T05:20:12.162Z,13.40
2022-10-16T05:22:39.150Z,13.27
2022-10-16T05:25:06.329Z,12.88
2022-10-16T05:27:33.360Z,13.13
2022-10-16T05:30:00.131Z,12.63
2022-10-16T05:32:27.105Z,12.35
2022-10-16T05:34:53.928Z,13.18
2022-10-16T05:37:20.894Z,13.27
2022-10-16T05:39:47.665Z,13.85
2022-10-16T05:42:15.616Z,14.57
2022-10-16T05:44:42.425Z,13.82
2022-10-16T05:47:09.454Z,13.93
2022-10-16T05:49:39.075Z,13.15
2022-10-16T05:52:08.659Z,13.57
2022-10-16T05:54:35.405Z,14.13
2022-10-16T05:57:03.144Z,12.90
2022-10-16T05:59:29.896Z,12.80
2022-10-16T06:01:56.877Z,14.32
2022-10-16T06:04:23.704Z,15.63
2022-10-16T06:06:50.705Z,15.32
2022-10-16T06:09:17.460Z,15.65
2022-10-16T06:11:44.460Z,14.88
2022-10-16T06:14:11.245Z,11.32
2022-10-16T06:16:38.392Z,12.85
2022-10-16T06:19:07.416Z,11.98
2022-10-16T06:21:34.704Z,13.18
2022-10-16T06:24:01.614Z,13.57
2022-10-16T06:26:29.708Z,12.93
2022-10-16T06:28:57.288Z,14.30
2022-10-16T06:31:28.256Z,13.93
2022-10-16T06:33:55.228Z,13.20
2022-10-16T06:36:22.272Z,14.32
2022-10-16T06:38:49.050Z,14.07
2022-10-16T06:41:17.664Z,13.57
2022-10-16T06:43:46.127Z,15.75
2022-10-16T06:46:14.076Z,13.27
2022-10-16T06:48:40.873Z,13.13
2022-10-16T06:51:11.419Z,13.60
2022-10-16T06:54:00.985Z,12.82
2022-10-16T06:56:28.279Z,15.15
2022-10-16T06:58:55.126Z,16.80
2022-10-16T07:01:23.619Z,13.85
2022-10-16T07:03:50.527Z,17.75
2022-10-16T07:06:19.205Z,16.52
2022-10-16T07:08:47.259Z,16.25
2022-10-16T07:11:16.495Z,17.15
2022-10-16T07:13:44.242Z,15.57
2022-10-16T07:16:19.935Z,17.27
2022-10-16T07:18:47.587Z,16.35
2022-10-16T07:21:18.771Z,15.55
2022-10-16T07:23:45.608Z,15.77
2022-10-16T07:26:12.699Z,16.27
2022-10-16T07:28:40.798Z,15.50
2022-10-16T07:31:12.759Z,19.88
2022-10-16T07:33:40.446Z,14.07
2022-10-16T07:36:09.587Z,17.92
2022-10-16T07:38:38.972Z,18.27
2022-10-16T07:41:07.468Z,15.95
2022-10-16T07:43:34.369Z,16.15
2022-10-16T07:46:04.018Z,17.80
2022-10-16T07:48:34.029Z,17.38
2022-10-16T07:51:01.776Z,38.45
2022-10-16T07:53:28.604Z,40.40
2022-10-16T07:56:03.411Z,57.85
2022-10-16T07:58:30.358Z,76.00
2022-10-16T08:00:57.703Z,86.40
2022-10-16T08:03:25.154Z,92.10
2022-10-16T08:05:52.403Z,88.63
2022-10-16T08:08:19.407Z,83.53
2022-10-16T08:10:46.414Z,93.32
2022-10-16T08:13:16.184Z,91.45
2022-10-16T08:15:44.400Z,90.40
2022-10-16T08:18:11.927Z,88.18
2022-10-16T08:20:39.185Z,89.13
2022-10-16T08:23:06.145Z,83.43
2022-10-16T08:25:40.107Z,81.50
2022-10-16T08:28:07.627Z,85.00
2022-10-16T08:30:34.844Z,78.93
2022-10-16T08:33:01.952Z,87.65
2022-10-16T08:35:29.035Z,83.70
2022-10-16T08:37:55.781Z,84.20
2022-10-16T08:40:27.981Z,73.72
2022-10-16T08:43:17.723Z,77.85
2022-10-16T08:45:57.035Z,79.43
2022-10-16T08:48:37.474Z,73.68
2022-10-16T08:51:04.504Z,66.72
2022-10-16T08:53:37.813Z,73.50
2022-10-16T08:56:04.977Z,69.80
2022-10-16T08:58:31.748Z,68.13
2022-10-16T09:01:02.919Z,59.85
2022-10-16T09:03:53.331Z,67.20
2022-10-16T09:06:38.792Z,67.38
2022-10-16T09:09:24.365Z,66.07
2022-10-16T09:12:01.598Z,51.85
2022-10-16T09:15:06.134Z,59.45
2022-10-16T09:17:36.297Z,56.28
2022-10-16T09:20:51.509Z,59.20
2022-10-16T09:23:29.269Z,63.08
2022-10-16T09:25:56.309Z,67.75
2022-10-16T09:28:23.394Z,68.45
2022-10-16T09:30:50.956Z,63.00
2022-10-16T09:33:24.642Z,57.80
2022-10-16T09:35:52.973Z,52.35
2022-10-16T09:38:33.797Z,55.53
2022-10-16T09:41:03.467Z,46.80
2022-10-16T09:43:37.202Z,46.33
2022-10-16T09:46:06.115Z,48.95
2022-10-16T09:48:49.047Z,38.72
2022-10-16T09:51:30.415Z,42.03
2022-10-16T09:53:58.902Z,37.78
2022-10-16T09:56:30.798Z,38.60
2022-10-16T09:58:59.462Z,54.03
2022-10-16T10:01:52.496Z,62.45
2022-10-16T10:04:24.352Z,60.47
2022-10-16T10:06:55.917Z,56.00
2022-10-16T10:09:25.544Z,42.95
2022-10-16T10:11:56.998Z,39.90
2022-10-16T10:14:38.876Z,36.72
2022-10-16T10:17:05.841Z,37.92
2022-10-16T10:19:52.609Z,37.33
2022-10-16T10:22:47.072Z,37.45
2022-10-16T10:25:14.334Z,35.35
2022-10-16T10:27:41.210Z,30.60
2022-10-16T10:33:05.834Z,28.92
2022-10-16T10:35:36.147Z,25.67
2022-10-16T10:38:40.508Z,29.13
2022-10-16T10:41:26.634Z,26.13
2022-10-16T10:44:05.581Z,25.42
2022-10-16T10:46:52.132Z,25.25
2022-10-16T10:49:28.208Z,24.25
2022-10-16T10:52:26.188Z,26.65
2022-10-16T10:55:21.581Z,27.13
2022-10-16T10:57:54.609Z,26.42
2022-10-16T11:00:32.096Z,30.27
2022-10-16T11:03:42.432Z,26.67
2022-10-16T11:06:17.297Z,29.95
2022-10-16T11:08:46.252Z,33.83
2022-10-16T11:11:50.744Z,30.55
2022-10-16T11:14:22.333Z,34.90
2022-10-16T11:16:57.007Z,34.10
2022-10-16T11:19:37.672Z,32.65
2022-10-16T11:22:13.884Z,33.78
2022-10-16T11:24:45.334Z,33.08
2022-10-16T11:27:15.805Z,30.05
2022-10-16T11:29:48.163Z,31.73
2022-10-16T11:32:25.264Z,29.40
2022-10-16T11:34:54.945Z,26.02
2022-10-16T11:37:25.464Z,26.17
2022-10-16T11:39:53.560Z,26.42
2022-10-16T11:42:46.100Z,23.88
2022-10-16T11:45:27.564Z,26.52
2022-10-16T11:48:15.908Z,22.17
2022-10-16T11:50:55.136Z,22.75
2022-10-16T11:53:35.729Z,19.48
2022-10-16T11:56:02.524Z,19.92
2022-10-16T11:58:40.533Z,17.60
2022-10-16T12:01:10.475Z,17.65
2022-10-16T12:04:06.396Z,17.67
2022-10-16T12:06:41.984Z,20.23
2022-10-16T12:09:29.028Z,18.55
2022-10-16T12:11:55.870Z,16.92
2022-10-16T12:17:37.985Z,15.43
2022-10-16T12:20:14.500Z,15.75
2022-10-16T12:22:52.266Z,16.33
2022-10-16T12:25:23.329Z,14.30
2022-10-16T12:28:18.603Z,16.73
2022-10-16T12:30:54.092Z,12.25
2022-10-16T12:33:21.999Z,15.57
2022-10-16T12:35:49.049Z,12.90
2022-10-16T12:38:48.335Z,15.35
2022-10-16T12:41:25.716Z,18.55
2022-10-16T12:43:52.507Z,12.18
2022-10-16T12:46:19.522Z,15.02
2022-10-16T12:49:02.197Z,15.52
2022-10-16T12:51:33.274Z,13.45
2022-10-16T12:54:01.188Z,12.85
2022-10-16T12:56:52.852Z,15.93
2022-10-16T12:59:22.658Z,12.73
2022-10-16T13:01:52.321Z,12.45
2022-10-16T13:04:29.594Z,13.20
2022-10-16T13:07:35.838Z,10.82
2022-10-16T13:10:33.527Z,12.18
2022-10-16T13:13:38.981Z,12.82
2022-10-16T13:16:09.309Z,19.60
2022-10-16T13:18:55.091Z,10.88
2022-10-16T13:24:20.650Z,13.25
2022-10-16T13:26:53.545Z,10.45
2022-10-16T13:29:20.791Z,11.63
2022-10-16T13:31:47.600Z,15.68
2022-10-16T13:34:18.377Z,11.45
2022-10-16T13:36:52.640Z,10.73
2022-10-16T13:39:30.353Z,11.35
2022-10-16T13:42:27.027Z,11.20
2022-10-16T13:44:56.093Z,11.88
2022-10-16T13:47:28.052Z,10.77
2022-10-16T13:50:12.376Z,11.85
2022-10-16T13:52:39.287Z,11.52
2022-10-16T13:55:16.868Z,11.27
2022-10-16T13:57:43.767Z,11.05
2022-10-16T14:00:20.087Z,10.93
2022-10-16T14:02:46.923Z,11.90
2022-10-16T14:05:14.884Z,12.43
2022-10-16T14:07:41.790Z,11.43
2022-10-16T14:10:24.021Z,10.65
2022-10-16T14:13:01.703Z,12.70
2022-10-16T14:15:28.701Z,11.27
2022-10-16T14:17:55.470Z,10.63
2022-10-16T14:20:26.523Z,13.35
2022-10-16T14:23:01.307Z,13.35
2022-10-16T14:25:30.563Z,13.32
2022-10-16T14:27:59.968Z,15.70
2022-10-16T14:30:26.884Z,14.00
2022-10-16T14:33:05.432Z,12.52
2022-10-16T14:35:34.856Z,14.48
2022-10-16T14:38:02.850Z,11.90
2022-10-16T14:40:31.953Z,13.05
2022-10-16T14:42:59.279Z,13.70
2022-10-16T14:45:28.491Z,12.23
2022-10-16T14:48:06.838Z,12.88
2022-10-16T14:50:33.759Z,12.05
2022-10-16T14:53:00.958Z,13.95
2022-10-16T14:55:27.760Z,11.88
2022-10-16T14:57:58.283Z,12.73
2022-10-16T15:00:27.595Z,15.93
2022-10-16T15:02:54.745Z,12.52
2022-10-16T15:05:23.343Z,15.60
2022-10-16T15:07:51.955Z,16.17
2022-10-16T15:10:18.934Z,23.77
2022-10-16T15:12:46.010Z,27.92
2022-10-16T15:15:24.834Z,39.95
2022-10-16T15:17:57.131Z,40.75
2022-10-16T15:20:28.278Z,49.53
2022-10-16T15:22:55.274Z,53.90
2022-10-16T15:25:44.247Z,62.15
2022-10-16T15:28:11.606Z,63.50
2022-10-16T15:30:38.555Z,63.17
2022-10-16T15:33:06.134Z,69.22
2022-10-16T15:35:32.926Z,69.80
2022-10-16T15:38:00.046Z,73.25
2022-10-16T15:40:26.979Z,76.03
2022-10-16T15:42:53.988Z,79.40
2022-10-16T15:45:20.800Z,92.45
2022-10-16T15:47:47.825Z,99.30
2022-10-16T15:50:15.994Z,107.85
2022-10-16T15:52:43.072Z,106.55
2022-10-16T15:55:11.117Z,122.60
2022-10-16T15:57:42.334Z,114.65
2022-10-16T16:00:21.696Z,121.22
2022-10-16T16:02:53.080Z,120.60
2022-10-16T16:05:20.204Z,121.78
2022-10-16T16:07:47.168Z,119.72
2022-10-16T16:10:14.132Z,112.05
2022-10-16T16:12:41.130Z,110.00
2022-10-16T16:15:09.198Z,106.18
2022-10-16T16:17:36.406Z,99.13
2022-10-16T16:20:04.846Z,100.40
2022-10-16T16:22:32.039Z,100.57
2022-10-16T16:24:58.847Z,99.70
2022-10-16T16:27:26.537Z,102.22
2022-10-16T16:29:54.405Z,103.75
2022-10-16T16:32:21.402Z,108.32
2022-10-16T16:34:48.408Z,102.88
2022-10-16T16:37:15.364Z,112.50
2022-10-16T16:39:42.310Z,105.55
2022-10-16T16:42:11.037Z,102.70
2022-10-16T16:44:38.030Z,102.32
2022-10-16T16:47:05.805Z,101.70
2022-10-16T16:49:32.907Z,102.82
2022-10-16T16:52:00.015Z,105.35
2022-10-16T16:54:27.004Z,102.18
2022-10-16T16:56:54.144Z,107.47
2022-10-16T16:59:21.294Z,112.18
2022-10-16T17:01:51.811Z,110.28
2022-10-16T17:04:20.994Z,102.72
2022-10-16T17:06:48.006Z,102.95
2022-10-16T17:09:16.061Z,99.13
2022-10-16T17:11:43.996Z,96.68
2022-10-16T17:14:10.889Z,98.97
2022-10-16T17:16:38.889Z,95.45
2022-10-16T17:19:07.564Z,92.63
2022-10-16T17:21:35.239Z,90.68
2022-10-16T17:24:02.128Z,81.05
2022-10-16T17:26:29.473Z,84.30
2022-10-16T17:28:58.104Z,81.07
2022-10-16T17:31:27.076Z,75.05
2022-10-16T17:33:53.842Z,79.25
2022-10-16T17:36:21.137Z,73.32
2022-10-16T17:38:48.490Z,72.30
2022-10-16T17:41:15.504Z,75.60
2022-10-16T17:43:42.306Z,72.00
2022-10-16T17:46:09.832Z,75.00
2022-10-16T17:48:40.358Z,71.15
2022-10-16T17:51:08.154Z,72.05
2022-10-16T17:53:35.322Z,70.28
2022-10-16T17:56:10.406Z,71.00
2022-10-16T17:58:37.534Z,70.82
2022-10-16T18:01:18.577Z,69.53
2022-10-16T18:03:49.469Z,67.75
2022-10-16T18:06:22.484Z,59.28
2022-10-16T18:08:53.664Z,59.13
2022-10-16T18:11:20.988Z,62.40
2022-10-16T18:13:47.827Z,59.97
2022-10-16T18:16:15.416Z,59.90
2022-10-16T18:18:43.096Z,56.25
2022-10-16T18:21:11.464Z,54.40
2022-10-16T18:23:38.361Z,55.17
2022-10-16T18:26:05.897Z,55.83
2022-10-16T18:28:33.067Z,50.65
2022-10-16T18:31:18.435Z,51.60
2022-10-16T18:33:48.621Z,51.25
2022-10-16T18:36:16.602Z,49.58
2022-10-16T18:38:43.387Z,50.67
2022-10-16T18:41:10.368Z,50.10
2022-10-16T18:43:38.095Z,50.17
2022-10-16T18:46:07.199Z,48.50
2022-10-16T18:48:34.235Z,45.88
2022-10-16T18:51:14.307Z,48.78
2022-10-16T18:53:41.765Z,45.42
2022-10-16T18:56:08.795Z,48.05
2022-10-16T18:58:35.981Z,44.22
2022-10-16T19:01:05.120Z,42.13
2022-10-16T19:03:32.371Z,43.63
2022-10-16T19:06:01.220Z,44.28
2022-10-16T19:08:28.114Z,41.17
2022-10-16T19:10:55.141Z,43.40
2022-10-16T19:13:21.902Z,37.67
2022-10-16T19:15:58.046Z,40.70
2022-10-16T19:18:27.009Z,44.45
2022-10-16T19:20:54.813Z,35.80
2022-10-16T19:23:21.955Z,35.38
2022-10-16T19:25:49.003Z,39.03
2022-10-16T19:28:15.800Z,41.88
2022-10-16T19:30:45.927Z,35.85
2022-10-16T19:33:13.306Z,32.55
2022-10-16T19:35:40.847Z,32.72
2022-10-16T19:38:07.667Z,34.25
2022-10-16T19:40:34.651Z,35.60
2022-10-16T19:43:01.527Z,50.50
2022-10-16T19:45:28.509Z,51.75
2022-10-16T19:47:55.389Z,50.97
2022-10-16T19:50:22.401Z,51.30
2022-10-16T19:52:49.164Z,65.18
2022-10-16T19:55:17.698Z,53.20
2022-10-16T19:57:44.505Z,53.97
2022-10-16T20:00:12.082Z,61.03
2022-10-16T20:02:38.889Z,61.08
2022-10-16T20:05:06.473Z,58.63
2022-10-16T20:07:34.898Z,54.83
2022-10-16T20:10:02.381Z,51.42
2022-10-16T20:12:29.169Z,52.30
2022-10-16T20:14:56.201Z,52.85
2022-10-16T20:17:23.021Z,53.63
2022-10-16T20:19:49.990Z,50.13
2022-10-16T20:22:16.774Z,52.22
2022-10-16T20:24:43.850Z,57.28
2022-10-16T20:27:10.698Z,56.95
2022-10-16T20:29:37.865Z,54.45
2022-10-16T20:32:04.779Z,54.45
2022-10-16T20:34:31.832Z,56.58
2022-10-16T20:36:58.639Z,54.88
2022-10-16T20:39:25.655Z,56.65
2022-10-16T20:41:52.519Z,51.40
2022-10-16T20:44:19.505Z,49.40
2022-10-16T20:46:46.290Z,47.13
2022-10-16T20:49:28.181Z,46.38
2022-10-16T20:52:00.103Z,44.92
2022-10-16T20:54:27.135Z,45.95
2022-10-16T20:56:54.410Z,44.17
2022-10-16T20:59:21.411Z,40.30
2022-10-16T21:01:48.251Z,37.33
2022-10-16T21:04:15.415Z,41.58
2022-10-16T21:06:42.279Z,37.88
2022-10-16T21:09:10.100Z,38.08
2022-10-16T21:11:37.242Z,40.15
2022-10-16T21:14:05.365Z,34.97
2022-10-16T21:16:32.209Z,32.38
2022-10-16T21:18:59.229Z,33.50
2022-10-16T21:21:30.699Z,33.55
2022-10-16T21:23:58.225Z,33.58
2022-10-16T21:26:28.505Z,31.42
2022-10-16T21:29:06.261Z,34.58
2022-10-16T21:31:33.308Z,36.03
2022-10-16T21:34:04.641Z,33.13
2022-10-16T21:36:33.617Z,31.98
2022-10-16T21:39:06.450Z,36.65
2022-10-16T21:41:33.363Z,31.13
2022-10-16T21:44:00.472Z,32.50
2022-10-16T21:46:28.731Z,32.67
2022-10-16T21:48:56.243Z,34.10
2022-10-16T21:51:31.266Z,33.67
2022-10-16T21:56:25.005Z,35.40
2022-10-16T21:58:52.090Z,33.08
2022-10-16T22:01:20.801Z,30.63
2022-10-16T22:03:48.406Z,31.10
2022-10-16T22:06:16.160Z,32.65
2022-10-16T22:08:43.519Z,28.15
2022-10-16T22:11:11.037Z,29.08
2022-10-16T22:13:38.536Z,28.33
2022-10-16T22:16:05.466Z,29.10
2022-10-16T22:18:32.896Z,25.40
2022-10-16T22:20:59.679Z,29.15
2022-10-16T22:23:26.751Z,28.25
2022-10-16T22:25:59.427Z,25.92
2022-10-16T22:28:26.450Z,25.55
2022-10-16T22:30:53.276Z,27.38
2022-10-16T22:33:20.813Z,25.95
2022-10-16T22:35:47.629Z,25.80
2022-10-16T22:38:14.683Z,22.75
2022-10-16T22:40:41.645Z,22.92
2022-10-16T22:43:08.673Z,23.33
2022-10-16T22:45:35.609Z,23.95
2022-10-16T22:48:02.941Z,25.85
2022-10-16T22:50:29.858Z,22.52
2022-10-16T22:52:56.948Z,23.23
2022-10-16T22:55:23.826Z,22.58
2022-10-16T22:57:50.905Z,22.83
2022-10-16T23:00:19.082Z,20.55
2022-10-16T23:02:46.227Z,22.70
2022-10-16T23:05:13.073Z,23.77
2022-10-16T23:07:40.149Z,21.83
2022-10-16T23:10:08.007Z,22.23
2022-10-16T23:12:35.768Z,22.65
2022-10-16T23:15:02.624Z,23.02
2022-10-16T23:17:29.653Z,23.20
2022-10-16T23:19:56.429Z,20.02
2022-10-16T23:22:23.403Z,19.98
2022-10-16T23:24:50.187Z,22.42
2022-10-16T23:27:17.227Z,21.27
2022-10-16T23:29:44.003Z,21.13
2022-10-16T23:32:10.986Z,19.58
2022-10-16T23:34:37.844Z,21.05
2022-10-16T23:37:06.569Z,23.63
2022-10-16T23:39:33.593Z,20.48
2022-10-16T23:42:00.577Z,19.98
2022-10-16T23:44:27.354Z,19.25
2022-10-16T23:46:54.381Z,20.10
2022-10-16T23:49:21.238Z,22.90
2022-10-16T23:51:48.256Z,19.40
2022-10-16T23:54:15.043Z,18.23
2022-10-16T23:56:42.038Z,20.05
2022-10-16T23:59:08.797Z,20.60
